sensor_id;sensor_type;location;lat;lon;timestamp;temperature;humidity
16511;DHT22;8368;48.772;8.754;2023-03-19T00:01:07;7.10;99.90
16511;DHT22;8368;48.772;8.754;2023-03-19T00:03:33;7.10;99.90
16511;DHT22;8368;48.772;8.754;2023-03-19T00:05:59;7.20;99.90
16511;DHT22;8368;48.772;8.754;2023-03-19T00:08:25;7.20;99.90
16511;DHT22;8368;48.772;8.754;2023-03-19T00:10:51;7.30;99.90
16511;DHT22;8368;48.772;8.754;2023-03-19T00:13:17;7.30;99.90
16511;DHT22;8368;48.772;8.754;2023-03-19T00:15:43;7.20;99.90
16511;DHT22;8368;48.772;8.754;2023-03-19T00:18:08;7.20;99.90
16511;DHT22;8368;48.772;8.754;2023-03-19T00:20:34;7.20;99.90
16511;DHT22;8368;48.772;8.754;2023-03-19T00:23:00;7.20;99.90
16511;DHT22;8368;48.772;8.754;2023-03-19T00:25:26;7.30;99.90
16511;DHT22;8368;48.772;8.754;2023-03-19T00:27:51;7.30;99.90
16511;DHT22;8368;48.772;8.754;2023-03-19T00:30:20;7.40;99.90
16511;DHT22;8368;48.772;8.754;2023-03-19T00:32:46;7.40;99.90
16511;DHT22;8368;48.772;8.754;2023-03-19T00:35:12;7.40;99.90
16511;DHT22;8368;48.772;8.754;2023-03-19T00:37:38;7.40;99.90
16511;DHT22;8368;48.772;8.754;2023-03-19T00:40:04;7.40;99.90
16511;DHT22;8368;48.772;8.754;2023-03-19T00:42:30;7.50;99.90
16511;DHT22;8368;48.772;8.754;2023-03-19T00:44:56;7.50;99.90
16511;DHT22;8368;48.772;8.754;2023-03-19T00:47:22;7.60;99.90
16511;DHT22;8368;48.772;8.754;2023-03-19T00:49:47;7.60;99.90
16511;DHT22;8368;48.772;8.754;2023-03-19T00:52:13;7.60;99.90
16511;DHT22;8368;48.772;8.754;2023-03-19T00:54:39;7.50;99.90
16511;DHT22;8368;48.772;8.754;2023-03-19T00:57:04;7.50;99.90
16511;DHT22;8368;48.772;8.754;2023-03-19T00:59:30;7.50;99.90
16511;DHT22;8368;48.772;8.754;2023-03-19T01:01:56;7.50;99.90
16511;DHT22;8368;48.772;8.754;2023-03-19T01:04:21;7.60;99.90
16511;DHT22;8368;48.772;8.754;2023-03-19T01:06:47;7.60;99.90
16511;DHT22;8368;48.772;8.754;2023-03-19T01:09:13;7.60;99.90
16511;DHT22;8368;48.772;8.754;2023-03-19T01:11:39;7.80;99.90
16511;DHT22;8368;48.772;8.754;2023-03-19T01:14:04;7.90;99.90
16511;DHT22;8368;48.772;8.754;2023-03-19T01:16:30;7.90;99.90
16511;DHT22;8368;48.772;8.754;2023-03-19T01:18:56;7.90;99.90
16511;DHT22;8368;48.772;8.754;2023-03-19T01:21:22;7.80;99.90
16511;DHT22;8368;48.772;8.754;2023-03-19T01:23:48;7.80;99.90
16511;DHT22;8368;48.772;8.754;2023-03-19T01:26:16;7.80;99.90
16511;DHT22;8368;48.772;8.754;2023-03-19T01:28:42;7.80;99.90
16511;DHT22;8368;48.772;8.754;2023-03-19T01:31:08;7.70;99.90
16511;DHT22;8368;48.772;8.754;2023-03-19T01:33:34;7.70;99.90
16511;DHT22;8368;48.772;8.754;2023-03-19T01:36:00;7.60;99.90
16511;DHT22;8368;48.772;8.754;2023-03-19T01:38:29;7.50;99.90
16511;DHT22;8368;48.772;8.754;2023-03-19T01:40:54;7.50;99.90
16511;DHT22;8368;48.772;8.754;2023-03-19T01:43:22;7.50;99.90
16511;DHT22;8368;48.772;8.754;2023-03-19T01:45:56;7.40;99.90
16511;DHT22;8368;48.772;8.754;2023-03-19T01:48:27;7.40;99.90
16511;DHT22;8368;48.772;8.754;2023-03-19T01:50:55;7.40;99.90
16511;DHT22;8368;48.772;8.754;2023-03-19T01:53:25;7.40;99.90
16511;DHT22;8368;48.772;8.754;2023-03-19T01:55:55;7.60;99.90
16511;DHT22;8368;48.772;8.754;2023-03-19T01:58:22;7.50;99.90
16511;DHT22;8368;48.772;8.754;2023-03-19T02:00:48;7.40;99.90
16511;DHT22;8368;48.772;8.754;2023-03-19T02:03:13;7.30;99.90
16511;DHT22;8368;48.772;8.754;2023-03-19T02:05:40;7.30;99.90
16511;DHT22;8368;48.772;8.754;2023-03-19T02:08:11;7.30;99.90
16511;DHT22;8368;48.772;8.754;2023-03-19T02:10:39;7.30;99.90
16511;DHT22;8368;48.772;8.754;2023-03-19T02:13:05;7.30;99.90
16511;DHT22;8368;48.772;8.754;2023-03-19T02:15:31;7.20;99.90
16511;DHT22;8368;48.772;8.754;2023-03-19T02:17:57;7.20;99.90
16511;DHT22;8368;48.772;8.754;2023-03-19T02:20:29;7.10;99.90
16511;DHT22;8368;48.772;8.754;2023-03-19T02:26:05;7.00;99.90
16511;DHT22;8368;48.772;8.754;2023-03-19T02:28:33;7.00;99.90
16511;DHT22;8368;48.772;8.754;2023-03-19T02:30:59;7.00;99.90
16511;DHT22;8368;48.772;8.754;2023-03-19T02:33:24;7.10;99.90
16511;DHT22;8368;48.772;8.754;2023-03-19T02:35:51;7.10;99.90
16511;DHT22;8368;48.772;8.754;2023-03-19T02:38:17;7.10;99.90
16511;DHT22;8368;48.772;8.754;2023-03-19T02:41:01;7.10;99.90
16511;DHT22;8368;48.772;8.754;2023-03-19T02:43:30;7.00;99.90
16511;DHT22;8368;48.772;8.754;2023-03-19T02:45:56;6.90;99.90
16511;DHT22;8368;48.772;8.754;2023-03-19T02:48:23;6.90;99.90
16511;DHT22;8368;48.772;8.754;2023-03-19T02:50:48;6.80;99.90
16511;DHT22;8368;48.772;8.754;2023-03-19T02:53:14;6.80;99.90
16511;DHT22;8368;48.772;8.754;2023-03-19T02:55:40;6.80;99.90
16511;DHT22;8368;48.772;8.754;2023-03-19T02:58:06;6.80;99.90
16511;DHT22;8368;48.772;8.754;2023-03-19T03:00:32;6.80;99.90
16511;DHT22;8368;48.772;8.754;2023-03-19T03:02:58;6.80;99.90
16511;DHT22;8368;48.772;8.754;2023-03-19T03:05:25;6.80;99.90
16511;DHT22;8368;48.772;8.754;2023-03-19T03:07:50;6.80;99.90
16511;DHT22;8368;48.772;8.754;2023-03-19T03:10:16;6.80;99.90
16511;DHT22;8368;48.772;8.754;2023-03-19T03:12:42;6.80;99.90
16511;DHT22;8368;48.772;8.754;2023-03-19T03:15:08;6.80;99.90
16511;DHT22;8368;48.772;8.754;2023-03-19T03:17:38;6.80;99.90
16511;DHT22;8368;48.772;8.754;2023-03-19T03:20:05;6.80;99.90
16511;DHT22;8368;48.772;8.754;2023-03-19T03:22:32;6.80;99.90
16511;DHT22;8368;48.772;8.754;2023-03-19T03:24:57;6.80;99.90
16511;DHT22;8368;48.772;8.754;2023-03-19T03:27:23;6.90;99.90
16511;DHT22;8368;48.772;8.754;2023-03-19T03:29:49;6.90;99.90
16511;DHT22;8368;48.772;8.754;2023-03-19T03:32:15;6.80;99.90
16511;DHT22;8368;48.772;8.754;2023-03-19T03:34:41;6.80;99.90
16511;DHT22;8368;48.772;8.754;2023-03-19T03:37:07;6.80;99.90
16511;DHT22;8368;48.772;8.754;2023-03-19T03:39:33;6.80;99.90
16511;DHT22;8368;48.772;8.754;2023-03-19T03:41:59;6.80;99.90
16511;DHT22;8368;48.772;8.754;2023-03-19T03:44:25;6.80;99.90
16511;DHT22;8368;48.772;8.754;2023-03-19T03:46:50;6.90;99.90
16511;DHT22;8368;48.772;8.754;2023-03-19T03:49:16;6.90;99.90
16511;DHT22;8368;48.772;8.754;2023-03-19T03:51:41;6.90;99.90
16511;DHT22;8368;48.772;8.754;2023-03-19T03:54:07;6.90;99.90
16511;DHT22;8368;48.772;8.754;2023-03-19T03:56:32;6.80;99.90
16511;DHT22;8368;48.772;8.754;2023-03-19T03:58:59;6.90;99.90
16511;DHT22;8368;48.772;8.754;2023-03-19T04:01:25;7.00;99.90
16511;DHT22;8368;48.772;8.754;2023-03-19T04:03:51;7.00;99.90
16511;DHT22;8368;48.772;8.754;2023-03-19T04:06:18;7.00;99.90
16511;DHT22;8368;48.772;8.754;2023-03-19T04:08:45;7.00;99.90
16511;DHT22;8368;48.772;8.754;2023-03-19T04:11:11;7.10;99.90
16511;DHT22;8368;48.772;8.754;2023-03-19T04:13:37;7.10;99.90
16511;DHT22;8368;48.772;8.754;2023-03-19T04:16:03;7.10;99.90
16511;DHT22;8368;48.772;8.754;2023-03-19T04:18:29;7.20;99.90
16511;DHT22;8368;48.772;8.754;2023-03-19T04:20:55;7.10;99.90
16511;DHT22;8368;48.772;8.754;2023-03-19T04:23:22;7.20;99.90
16511;DHT22;8368;48.772;8.754;2023-03-19T04:25:47;7.20;99.90
16511;DHT22;8368;48.772;8.754;2023-03-19T04:28:13;7.20;99.90
16511;DHT22;8368;48.772;8.754;2023-03-19T04:30:38;7.30;99.90
16511;DHT22;8368;48.772;8.754;2023-03-19T04:33:04;7.30;99.90
16511;DHT22;8368;48.772;8.754;2023-03-19T04:35:31;7.30;99.90
16511;DHT22;8368;48.772;8.754;2023-03-19T04:37:56;7.30;99.90
16511;DHT22;8368;48.772;8.754;2023-03-19T04:40:22;7.40;99.90
16511;DHT22;8368;48.772;8.754;2023-03-19T04:42:47;7.40;99.90
16511;DHT22;8368;48.772;8.754;2023-03-19T04:45:13;7.40;99.90
16511;DHT22;8368;48.772;8.754;2023-03-19T04:47:39;7.40;99.90
16511;DHT22;8368;48.772;8.754;2023-03-19T04:50:06;7.40;99.90
16511;DHT22;8368;48.772;8.754;2023-03-19T04:52:32;7.40;99.90
16511;DHT22;8368;48.772;8.754;2023-03-19T04:54:58;7.40;99.90
16511;DHT22;8368;48.772;8.754;2023-03-19T04:57:23;7.40;99.90
16511;DHT22;8368;48.772;8.754;2023-03-19T04:59:49;7.40;99.90
16511;DHT22;8368;48.772;8.754;2023-03-19T05:02:14;7.40;99.90
16511;DHT22;8368;48.772;8.754;2023-03-19T05:04:40;7.40;99.90
16511;DHT22;8368;48.772;8.754;2023-03-19T05:07:06;7.40;99.90
16511;DHT22;8368;48.772;8.754;2023-03-19T05:09:31;7.40;99.90
16511;DHT22;8368;48.772;8.754;2023-03-19T05:11:57;7.40;99.90
16511;DHT22;8368;48.772;8.754;2023-03-19T05:14:23;7.40;99.90
16511;DHT22;8368;48.772;8.754;2023-03-19T05:16:48;7.40;99.90
16511;DHT22;8368;48.772;8.754;2023-03-19T05:19:14;7.40;99.90
16511;DHT22;8368;48.772;8.754;2023-03-19T05:21:40;7.40;99.90
16511;DHT22;8368;48.772;8.754;2023-03-19T05:24:07;7.40;99.90
16511;DHT22;8368;48.772;8.754;2023-03-19T05:26:32;7.40;99.90
16511;DHT22;8368;48.772;8.754;2023-03-19T05:28:58;7.40;99.90
16511;DHT22;8368;48.772;8.754;2023-03-19T05:31:23;7.30;99.90
16511;DHT22;8368;48.772;8.754;2023-03-19T05:33:49;7.40;99.90
16511;DHT22;8368;48.772;8.754;2023-03-19T05:36:14;7.30;99.90
16511;DHT22;8368;48.772;8.754;2023-03-19T05:38:41;7.40;99.90
16511;DHT22;8368;48.772;8.754;2023-03-19T05:41:07;7.30;99.90
16511;DHT22;8368;48.772;8.754;2023-03-19T05:43:32;7.30;99.90
16511;DHT22;8368;48.772;8.754;2023-03-19T05:45:58;7.40;99.90
16511;DHT22;8368;48.772;8.754;2023-03-19T05:48:24;7.40;99.90
16511;DHT22;8368;48.772;8.754;2023-03-19T05:50:50;7.40;99.90
16511;DHT22;8368;48.772;8.754;2023-03-19T05:53:17;7.40;99.90
16511;DHT22;8368;48.772;8.754;2023-03-19T05:55:43;7.40;99.90
16511;DHT22;8368;48.772;8.754;2023-03-19T05:58:09;7.40;99.90
16511;DHT22;8368;48.772;8.754;2023-03-19T06:00:34;7.40;99.90
16511;DHT22;8368;48.772;8.754;2023-03-19T06:03:00;7.40;99.90
16511;DHT22;8368;48.772;8.754;2023-03-19T06:05:26;7.50;99.90
16511;DHT22;8368;48.772;8.754;2023-03-19T06:07:52;7.50;99.90
16511;DHT22;8368;48.772;8.754;2023-03-19T06:10:17;7.50;99.90
16511;DHT22;8368;48.772;8.754;2023-03-19T06:12:43;7.50;99.90
16511;DHT22;8368;48.772;8.754;2023-03-19T06:15:09;7.50;99.90
16511;DHT22;8368;48.772;8.754;2023-03-19T06:17:35;7.50;99.90
16511;DHT22;8368;48.772;8.754;2023-03-19T06:20:00;7.50;99.90
16511;DHT22;8368;48.772;8.754;2023-03-19T06:22:26;7.50;99.90
16511;DHT22;8368;48.772;8.754;2023-03-19T06:24:51;7.60;99.90
16511;DHT22;8368;48.772;8.754;2023-03-19T06:27:17;7.60;99.90
16511;DHT22;8368;48.772;8.754;2023-03-19T06:29:43;7.60;99.90
16511;DHT22;8368;48.772;8.754;2023-03-19T06:32:09;7.60;99.90
16511;DHT22;8368;48.772;8.754;2023-03-19T06:34:35;7.70;99.90
16511;DHT22;8368;48.772;8.754;2023-03-19T06:37:01;7.70;99.90
16511;DHT22;8368;48.772;8.754;2023-03-19T06:39:26;7.70;99.90
16511;DHT22;8368;48.772;8.754;2023-03-19T06:41:52;7.80;99.90
16511;DHT22;8368;48.772;8.754;2023-03-19T06:44:18;7.80;99.90
16511;DHT22;8368;48.772;8.754;2023-03-19T06:46:44;7.90;99.90
16511;DHT22;8368;48.772;8.754;2023-03-19T06:49:10;8.00;99.90
16511;DHT22;8368;48.772;8.754;2023-03-19T06:51:36;8.10;99.90
16511;DHT22;8368;48.772;8.754;2023-03-19T06:54:01;8.20;99.90
16511;DHT22;8368;48.772;8.754;2023-03-19T06:56:27;8.20;99.90
16511;DHT22;8368;48.772;8.754;2023-03-19T06:58:53;8.30;99.90
16511;DHT22;8368;48.772;8.754;2023-03-19T07:01:19;8.40;99.90
16511;DHT22;8368;48.772;8.754;2023-03-19T07:03:46;8.40;99.90
16511;DHT22;8368;48.772;8.754;2023-03-19T07:06:11;8.40;99.90
16511;DHT22;8368;48.772;8.754;2023-03-19T07:08:37;8.50;99.90
16511;DHT22;8368;48.772;8.754;2023-03-19T07:11:04;8.60;99.90
16511;DHT22;8368;48.772;8.754;2023-03-19T07:13:29;8.70;99.90
16511;DHT22;8368;48.772;8.754;2023-03-19T07:15:55;8.80;99.90
16511;DHT22;8368;48.772;8.754;2023-03-19T07:18:20;8.90;99.90
16511;DHT22;8368;48.772;8.754;2023-03-19T07:20:46;9.00;99.90
16511;DHT22;8368;48.772;8.754;2023-03-19T07:23:11;9.20;99.90
16511;DHT22;8368;48.772;8.754;2023-03-19T07:25:37;9.30;99.90
16511;DHT22;8368;48.772;8.754;2023-03-19T07:28:03;9.40;99.90
16511;DHT22;8368;48.772;8.754;2023-03-19T07:30:28;9.50;99.90
16511;DHT22;8368;48.772;8.754;2023-03-19T07:32:54;9.50;99.90
16511;DHT22;8368;48.772;8.754;2023-03-19T07:35:20;9.60;99.90
16511;DHT22;8368;48.772;8.754;2023-03-19T07:37:46;9.70;99.90
16511;DHT22;8368;48.772;8.754;2023-03-19T07:40:12;9.70;99.90
16511;DHT22;8368;48.772;8.754;2023-03-19T07:42:38;9.70;99.90
16511;DHT22;8368;48.772;8.754;2023-03-19T07:45:04;9.60;99.90
16511;DHT22;8368;48.772;8.754;2023-03-19T07:47:30;9.50;99.90
16511;DHT22;8368;48.772;8.754;2023-03-19T07:49:56;9.50;99.90
16511;DHT22;8368;48.772;8.754;2023-03-19T07:52:23;9.50;99.90
16511;DHT22;8368;48.772;8.754;2023-03-19T07:54:48;9.50;99.90
16511;DHT22;8368;48.772;8.754;2023-03-19T07:57:15;9.50;99.90
16511;DHT22;8368;48.772;8.754;2023-03-19T07:59:41;9.40;99.90
16511;DHT22;8368;48.772;8.754;2023-03-19T08:02:10;9.40;99.90
16511;DHT22;8368;48.772;8.754;2023-03-19T08:04:35;9.40;99.90
16511;DHT22;8368;48.772;8.754;2023-03-19T08:07:01;9.40;99.90
16511;DHT22;8368;48.772;8.754;2023-03-19T08:09:27;9.50;99.90
16511;DHT22;8368;48.772;8.754;2023-03-19T08:11:52;9.60;99.90
16511;DHT22;8368;48.772;8.754;2023-03-19T08:14:18;9.60;99.90
16511;DHT22;8368;48.772;8.754;2023-03-19T08:16:47;9.70;99.90
16511;DHT22;8368;48.772;8.754;2023-03-19T08:19:12;9.80;99.90
16511;DHT22;8368;48.772;8.754;2023-03-19T08:21:38;9.80;99.90
16511;DHT22;8368;48.772;8.754;2023-03-19T08:24:04;9.80;99.90
16511;DHT22;8368;48.772;8.754;2023-03-19T08:26:29;9.80;99.90
16511;DHT22;8368;48.772;8.754;2023-03-19T08:28:57;9.90;99.90
16511;DHT22;8368;48.772;8.754;2023-03-19T08:31:23;9.90;99.90
16511;DHT22;8368;48.772;8.754;2023-03-19T08:33:48;10.00;99.90
16511;DHT22;8368;48.772;8.754;2023-03-19T08:36:14;10.10;99.90
16511;DHT22;8368;48.772;8.754;2023-03-19T08:38:41;10.20;99.90
16511;DHT22;8368;48.772;8.754;2023-03-19T08:41:07;10.40;99.90
16511;DHT22;8368;48.772;8.754;2023-03-19T08:43:34;10.40;99.90
16511;DHT22;8368;48.772;8.754;2023-03-19T08:46:04;10.60;99.90
16511;DHT22;8368;48.772;8.754;2023-03-19T08:48:30;10.70;99.90
16511;DHT22;8368;48.772;8.754;2023-03-19T08:50:58;10.70;99.90
16511;DHT22;8368;48.772;8.754;2023-03-19T08:53:24;10.80;99.90
16511;DHT22;8368;48.772;8.754;2023-03-19T08:55:54;11.00;99.90
16511;DHT22;8368;48.772;8.754;2023-03-19T08:58:21;11.20;99.90
16511;DHT22;8368;48.772;8.754;2023-03-19T09:00:47;11.40;99.90
16511;DHT22;8368;48.772;8.754;2023-03-19T09:03:13;11.50;99.90
16511;DHT22;8368;48.772;8.754;2023-03-19T09:05:39;11.70;99.90
16511;DHT22;8368;48.772;8.754;2023-03-19T09:08:05;11.80;99.90
16511;DHT22;8368;48.772;8.754;2023-03-19T09:10:31;11.90;99.90
16511;DHT22;8368;48.772;8.754;2023-03-19T09:12:57;12.10;99.90
16511;DHT22;8368;48.772;8.754;2023-03-19T09:15:22;12.10;99.90
16511;DHT22;8368;48.772;8.754;2023-03-19T09:17:48;12.20;99.90
16511;DHT22;8368;48.772;8.754;2023-03-19T09:20:14;12.30;99.90
16511;DHT22;8368;48.772;8.754;2023-03-19T09:22:39;12.20;99.90
16511;DHT22;8368;48.772;8.754;2023-03-19T09:25:05;12.20;99.90
16511;DHT22;8368;48.772;8.754;2023-03-19T09:27:31;12.10;99.90
16511;DHT22;8368;48.772;8.754;2023-03-19T09:29:57;12.20;99.90
16511;DHT22;8368;48.772;8.754;2023-03-19T09:32:22;12.20;99.90
16511;DHT22;8368;48.772;8.754;2023-03-19T09:34:48;12.40;99.90
16511;DHT22;8368;48.772;8.754;2023-03-19T09:37:14;12.30;99.90
16511;DHT22;8368;48.772;8.754;2023-03-19T09:39:39;12.40;99.90
16511;DHT22;8368;48.772;8.754;2023-03-19T09:44:37;12.60;99.90
16511;DHT22;8368;48.772;8.754;2023-03-19T09:50:00;12.60;99.90
16511;DHT22;8368;48.772;8.754;2023-03-19T09:55:15;12.80;99.90
16511;DHT22;8368;48.772;8.754;2023-03-19T09:57:43;12.80;99.90
16511;DHT22;8368;48.772;8.754;2023-03-19T10:00:25;12.80;99.90
16511;DHT22;8368;48.772;8.754;2023-03-19T10:02:56;12.80;99.90
16511;DHT22;8368;48.772;8.754;2023-03-19T10:08:36;12.80;99.90
16511;DHT22;8368;48.772;8.754;2023-03-19T10:14:06;12.90;99.90
16511;DHT22;8368;48.772;8.754;2023-03-19T10:16:36;13.00;99.90
16511;DHT22;8368;48.772;8.754;2023-03-19T10:19:04;12.90;99.90
16511;DHT22;8368;48.772;8.754;2023-03-19T10:21:35;12.90;99.90
16511;DHT22;8368;48.772;8.754;2023-03-19T10:24:10;13.10;99.90
16511;DHT22;8368;48.772;8.754;2023-03-19T10:26:36;13.30;99.90
16511;DHT22;8368;48.772;8.754;2023-03-19T10:29:12;13.60;99.90
16511;DHT22;8368;48.772;8.754;2023-03-19T10:37:04;14.30;99.90
16511;DHT22;8368;48.772;8.754;2023-03-19T10:39:34;14.30;99.90
16511;DHT22;8368;48.772;8.754;2023-03-19T10:45:20;14.60;99.90
16511;DHT22;8368;48.772;8.754;2023-03-19T10:47:48;14.80;99.90
16511;DHT22;8368;48.772;8.754;2023-03-19T10:50:19;14.90;99.90
16511;DHT22;8368;48.772;8.754;2023-03-19T10:52:49;14.90;99.90
16511;DHT22;8368;48.772;8.754;2023-03-19T10:55:22;14.90;99.90
16511;DHT22;8368;48.772;8.754;2023-03-19T10:57:49;14.90;99.90
16511;DHT22;8368;48.772;8.754;2023-03-19T11:00:21;14.90;99.90
16511;DHT22;8368;48.772;8.754;2023-03-19T11:02:51;14.90;99.90
16511;DHT22;8368;48.772;8.754;2023-03-19T11:05:25;14.80;99.90
16511;DHT22;8368;48.772;8.754;2023-03-19T11:07:55;14.70;99.90
16511;DHT22;8368;48.772;8.754;2023-03-19T11:10:23;14.50;99.90
16511;DHT22;8368;48.772;8.754;2023-03-19T11:12:57;14.40;99.90
16511;DHT22;8368;48.772;8.754;2023-03-19T11:15:33;14.20;99.90
16511;DHT22;8368;48.772;8.754;2023-03-19T11:18:06;14.00;99.90
16511;DHT22;8368;48.772;8.754;2023-03-19T11:20:37;14.00;99.90
16511;DHT22;8368;48.772;8.754;2023-03-19T11:23:11;14.00;99.90
16511;DHT22;8368;48.772;8.754;2023-03-19T11:28:15;14.00;99.90
16511;DHT22;8368;48.772;8.754;2023-03-19T11:33:30;13.80;99.90
16511;DHT22;8368;48.772;8.754;2023-03-19T11:39:17;13.60;99.90
16511;DHT22;8368;48.772;8.754;2023-03-19T11:42:12;13.70;99.90
16511;DHT22;8368;48.772;8.754;2023-03-19T11:45:04;13.70;99.90
16511;DHT22;8368;48.772;8.754;2023-03-19T11:52:58;13.90;99.90
16511;DHT22;8368;48.772;8.754;2023-03-19T12:01:17;14.10;99.90
16511;DHT22;8368;48.772;8.754;2023-03-19T12:04:15;14.30;99.90
16511;DHT22;8368;48.772;8.754;2023-03-19T12:09:19;14.50;99.90
16511;DHT22;8368;48.772;8.754;2023-03-19T12:31:26;14.90;99.90
16511;DHT22;8368;48.772;8.754;2023-03-19T12:36:52;15.00;99.90
16511;DHT22;8368;48.772;8.754;2023-03-19T12:39:25;15.10;99.90
16511;DHT22;8368;48.772;8.754;2023-03-19T12:41:53;15.10;99.90
16511;DHT22;8368;48.772;8.754;2023-03-19T12:44:36;15.20;99.90
16511;DHT22;8368;48.772;8.754;2023-03-19T12:47:16;15.20;99.90
16511;DHT22;8368;48.772;8.754;2023-03-19T12:50:02;15.10;99.90
16511;DHT22;8368;48.772;8.754;2023-03-19T12:52:38;15.10;99.90
16511;DHT22;8368;48.772;8.754;2023-03-19T12:55:14;15.20;99.90
16511;DHT22;8368;48.772;8.754;2023-03-19T12:57:50;15.30;99.90
16511;DHT22;8368;48.772;8.754;2023-03-19T13:00:58;15.20;99.90
16511;DHT22;8368;48.772;8.754;2023-03-19T13:03:54;15.00;99.90
16511;DHT22;8368;48.772;8.754;2023-03-19T13:06:33;14.80;99.90
16511;DHT22;8368;48.772;8.754;2023-03-19T13:14:24;14.50;99.90
16511;DHT22;8368;48.772;8.754;2023-03-19T13:16:54;14.40;99.90
16511;DHT22;8368;48.772;8.754;2023-03-19T13:19:40;14.40;99.90
16511;DHT22;8368;48.772;8.754;2023-03-19T13:22:10;14.40;99.90
16511;DHT22;8368;48.772;8.754;2023-03-19T13:24:38;14.40;99.90
16511;DHT22;8368;48.772;8.754;2023-03-19T13:27:13;14.40;99.90
16511;DHT22;8368;48.772;8.754;2023-03-19T13:30:05;14.30;99.90
16511;DHT22;8368;48.772;8.754;2023-03-19T13:32:35;14.40;99.90
16511;DHT22;8368;48.772;8.754;2023-03-19T13:37:43;14.30;99.90
16511;DHT22;8368;48.772;8.754;2023-03-19T13:40:36;14.30;99.90
16511;DHT22;8368;48.772;8.754;2023-03-19T13:43:02;14.20;99.90
16511;DHT22;8368;48.772;8.754;2023-03-19T13:45:34;14.30;99.90
16511;DHT22;8368;48.772;8.754;2023-03-19T13:48:31;14.50;99.90
16511;DHT22;8368;48.772;8.754;2023-03-19T13:51:04;14.80;99.90
16511;DHT22;8368;48.772;8.754;2023-03-19T13:56:01;15.10;99.90
16511;DHT22;8368;48.772;8.754;2023-03-19T13:58:28;15.40;99.90
16511;DHT22;8368;48.772;8.754;2023-03-19T14:03:58;15.50;99.90
16511;DHT22;8368;48.772;8.754;2023-03-19T14:09:02;15.50;99.90
16511;DHT22;8368;48.772;8.754;2023-03-19T14:11:30;15.40;99.90
16511;DHT22;8368;48.772;8.754;2023-03-19T14:14:01;15.20;99.90
16511;DHT22;8368;48.772;8.754;2023-03-19T14:16:36;15.10;99.90
16511;DHT22;8368;48.772;8.754;2023-03-19T14:19:10;14.90;99.90
16511;DHT22;8368;48.772;8.754;2023-03-19T14:21:45;14.80;99.90
16511;DHT22;8368;48.772;8.754;2023-03-19T14:24:38;14.70;99.90
16511;DHT22;8368;48.772;8.754;2023-03-19T14:27:15;14.70;99.90
16511;DHT22;8368;48.772;8.754;2023-03-19T14:29:43;14.60;99.90
16511;DHT22;8368;48.772;8.754;2023-03-19T14:32:15;14.50;99.90
16511;DHT22;8368;48.772;8.754;2023-03-19T14:34:45;14.40;99.90
16511;DHT22;8368;48.772;8.754;2023-03-19T14:39:48;13.80;99.90
16511;DHT22;8368;48.772;8.754;2023-03-19T14:42:37;13.60;99.90
16511;DHT22;8368;48.772;8.754;2023-03-19T14:53:03;12.90;99.90
16511;DHT22;8368;48.772;8.754;2023-03-19T14:55:36;12.80;99.90
16511;DHT22;8368;48.772;8.754;2023-03-19T14:58:03;12.60;99.90
16511;DHT22;8368;48.772;8.754;2023-03-19T15:00:41;12.60;99.90
16511;DHT22;8368;48.772;8.754;2023-03-19T15:03:18;12.70;99.90
16511;DHT22;8368;48.772;8.754;2023-03-19T15:05:44;12.70;99.90
16511;DHT22;8368;48.772;8.754;2023-03-19T15:08:16;12.80;99.90
16511;DHT22;8368;48.772;8.754;2023-03-19T15:10:58;12.80;99.90
16511;DHT22;8368;48.772;8.754;2023-03-19T15:14:05;12.80;99.90
16511;DHT22;8368;48.772;8.754;2023-03-19T15:19:10;12.40;99.90
16511;DHT22;8368;48.772;8.754;2023-03-19T15:21:37;12.40;99.90
16511;DHT22;8368;48.772;8.754;2023-03-19T15:24:03;12.20;99.90
16511;DHT22;8368;48.772;8.754;2023-03-19T15:26:31;12.10;99.90
16511;DHT22;8368;48.772;8.754;2023-03-19T15:28:57;12.00;99.90
16511;DHT22;8368;48.772;8.754;2023-03-19T15:31:23;11.80;99.90
16511;DHT22;8368;48.772;8.754;2023-03-19T15:34:25;11.10;99.90
16511;DHT22;8368;48.772;8.754;2023-03-19T15:36:54;10.40;99.90
16511;DHT22;8368;48.772;8.754;2023-03-19T15:39:25;10.00;99.90
16511;DHT22;8368;48.772;8.754;2023-03-19T15:41:52;9.80;99.90
16511;DHT22;8368;48.772;8.754;2023-03-19T15:44:31;9.70;99.90
16511;DHT22;8368;48.772;8.754;2023-03-19T15:47:01;9.70;99.90
16511;DHT22;8368;48.772;8.754;2023-03-19T15:49:31;9.70;99.90
16511;DHT22;8368;48.772;8.754;2023-03-19T15:52:02;9.70;99.90
16511;DHT22;8368;48.772;8.754;2023-03-19T15:54:29;9.70;99.90
16511;DHT22;8368;48.772;8.754;2023-03-19T15:56:55;9.80;99.90
16511;DHT22;8368;48.772;8.754;2023-03-19T15:59:22;9.80;99.90
16511;DHT22;8368;48.772;8.754;2023-03-19T16:01:51;9.80;99.90
16511;DHT22;8368;48.772;8.754;2023-03-19T16:04:22;9.90;99.90
16511;DHT22;8368;48.772;8.754;2023-03-19T16:06:49;10.00;99.90
16511;DHT22;8368;48.772;8.754;2023-03-19T16:11:50;10.00;99.90
16511;DHT22;8368;48.772;8.754;2023-03-19T16:17:15;9.90;99.90
16511;DHT22;8368;48.772;8.754;2023-03-19T16:19:51;9.80;99.90
16511;DHT22;8368;48.772;8.754;2023-03-19T16:22:24;9.80;99.90
16511;DHT22;8368;48.772;8.754;2023-03-19T16:24:52;9.80;99.90
16511;DHT22;8368;48.772;8.754;2023-03-19T16:27:34;9.70;99.90
16511;DHT22;8368;48.772;8.754;2023-03-19T16:30:00;9.70;99.90
16511;DHT22;8368;48.772;8.754;2023-03-19T16:32:28;9.60;99.90
16511;DHT22;8368;48.772;8.754;2023-03-19T16:37:31;9.50;99.90
16511;DHT22;8368;48.772;8.754;2023-03-19T16:47:42;9.40;99.90
16511;DHT22;8368;48.772;8.754;2023-03-19T16:50:08;9.30;99.90
16511;DHT22;8368;48.772;8.754;2023-03-19T16:52:34;9.30;99.90
16511;DHT22;8368;48.772;8.754;2023-03-19T16:55:02;9.30;99.90
16511;DHT22;8368;48.772;8.754;2023-03-19T16:57:28;9.30;99.90
16511;DHT22;8368;48.772;8.754;2023-03-19T16:59:54;9.20;99.90
16511;DHT22;8368;48.772;8.754;2023-03-19T17:02:19;9.20;99.90
16511;DHT22;8368;48.772;8.754;2023-03-19T17:04:45;9.30;99.90
16511;DHT22;8368;48.772;8.754;2023-03-19T17:07:11;9.20;99.90
16511;DHT22;8368;48.772;8.754;2023-03-19T17:09:37;9.30;99.90
16511;DHT22;8368;48.772;8.754;2023-03-19T17:12:04;9.20;99.90
16511;DHT22;8368;48.772;8.754;2023-03-19T17:14:31;9.10;99.90
16511;DHT22;8368;48.772;8.754;2023-03-19T17:16:57;9.10;99.90
16511;DHT22;8368;48.772;8.754;2023-03-19T17:19:26;9.20;99.90
16511;DHT22;8368;48.772;8.754;2023-03-19T17:21:56;9.20;99.90
16511;DHT22;8368;48.772;8.754;2023-03-19T17:24:23;9.20;99.90
16511;DHT22;8368;48.772;8.754;2023-03-19T17:26:50;9.20;99.90
16511;DHT22;8368;48.772;8.754;2023-03-19T17:29:16;9.30;99.90
16511;DHT22;8368;48.772;8.754;2023-03-19T17:31:44;9.10;99.90
16511;DHT22;8368;48.772;8.754;2023-03-19T17:34:12;9.10;99.90
16511;DHT22;8368;48.772;8.754;2023-03-19T17:36:48;9.10;99.90
16511;DHT22;8368;48.772;8.754;2023-03-19T17:39:13;9.10;99.90
16511;DHT22;8368;48.772;8.754;2023-03-19T17:41:39;9.00;99.90
16511;DHT22;8368;48.772;8.754;2023-03-19T17:44:04;9.00;99.90
16511;DHT22;8368;48.772;8.754;2023-03-19T17:46:34;9.00;99.90
16511;DHT22;8368;48.772;8.754;2023-03-19T17:49:01;9.00;99.90
16511;DHT22;8368;48.772;8.754;2023-03-19T17:51:27;9.00;99.90
16511;DHT22;8368;48.772;8.754;2023-03-19T17:53:53;8.90;99.90
16511;DHT22;8368;48.772;8.754;2023-03-19T17:56:21;8.80;99.90
16511;DHT22;8368;48.772;8.754;2023-03-19T17:58:49;8.80;99.90
16511;DHT22;8368;48.772;8.754;2023-03-19T18:01:26;8.80;99.90